Machiasport, Maine
Current Conditions -  °F | °C
As of 10:15 AM on Thursday 18 Dec 2014 (Local Time) from KBHB Reporting Station
Overcast Overcast  
Wind Chill: 25°   Ceiling: 1500
Heat Index: 34°   Visibility: 4mi
Dew Point: 32°   Wind: 13mph
Humidity: 93%   Direction: 330°NNW
Pressure: 29.6"   Gusts: 16mph
Location:  44.7°N, 67.4°W
Report Text: KBHB 181515Z AUTO 33011G14KT 290V360 4SM SCT010 BKN015 OVC027 01/00 A2960 RMK AO1
Loading
Personal Weather Stations






























Interactive Weather Map New forecast layout! Learn more

10-Day Weather Forecast

Advertisements
Track Severe Weather on mobile